Time;durP1;ratioP1;P1;durP2;ratioP2;P2;SDS_P1;SDS_P2;PMS_P1;PMS_P2;Temp;Humidity;BMP_temperature;BMP_pressure;BME280_temperature;BME280_humidity;BME280_pressure;Samples;Min_cycle;Max_cycle;Signal;HPM_P1;HPM_P2
2022/03/06 00:00:35;;;;;;;12.45;8.70;;;2.50;99.90;;;;;;5094679;28;20609;-82
2022/03/06 00:03:02;;;;;;;11.80;7.38;;;2.50;99.90;;;;;;5077948;28;20401;-82
2022/03/06 00:05:28;;;;;;;10.68;7.30;;;2.40;99.90;;;;;;5078036;28;20050;-82
2022/03/06 00:07:56;;;;;;;12.00;8.25;;;2.50;99.90;;;;;;5113078;28;20040;-82
2022/03/06 00:10:22;;;;;;;10.38;7.93;;;2.50;99.90;;;;;;5094571;28;20542;-82
2022/03/06 00:12:48;;;;;;;11.20;6.97;;;2.50;99.90;;;;;;5077999;28;20043;-82
2022/03/06 00:15:14;;;;;;;14.20;7.22;;;2.50;99.90;;;;;;5094360;28;20043;-82
2022/03/06 00:17:39;;;;;;;11.98;7.22;;;2.50;99.90;;;;;;5094721;28;20035;-82
2022/03/06 00:20:08;;;;;;;12.00;6.93;;;2.50;99.90;;;;;;5077513;28;20055;-82
2022/03/06 00:22:35;;;;;;;10.95;6.30;;;2.50;99.90;;;;;;5094415;28;20056;-82
2022/03/06 00:25:01;;;;;;;9.30;6.30;;;2.40;99.90;;;;;;5094147;28;20509;-82
2022/03/06 00:27:27;;;;;;;10.57;5.88;;;2.50;99.90;;;;;;5094467;28;20036;-82
2022/03/06 00:29:52;;;;;;;8.35;5.70;;;2.50;99.90;;;;;;5111818;28;20404;-82
2022/03/06 00:32:18;;;;;;;8.30;5.20;;;2.50;99.90;;;;;;5092700;28;20047;-82
2022/03/06 00:34:45;;;;;;;9.63;5.55;;;2.50;99.90;;;;;;5093415;28;20055;-82
2022/03/06 00:37:10;;;;;;;10.32;6.05;;;2.50;99.90;;;;;;5093481;28;20059;-82
2022/03/06 00:39:39;;;;;;;9.73;6.25;;;2.50;99.90;;;;;;5094133;28;20409;-82
2022/03/06 00:42:06;;;;;;;12.10;5.97;;;2.50;99.90;;;;;;5077259;28;20050;-82
2022/03/06 00:44:31;;;;;;;11.05;5.75;;;2.50;99.90;;;;;;5093740;28;20040;-82
2022/03/06 00:46:57;;;;;;;7.35;5.35;;;2.50;99.90;;;;;;5094261;28;20104;-82
2022/03/06 00:49:23;;;;;;;8.43;5.22;;;2.40;99.90;;;;;;5111965;28;20078;-82
2022/03/06 00:51:48;;;;;;;11.10;5.63;;;2.40;99.90;;;;;;5093269;28;20510;-82
2022/03/06 00:54:14;;;;;;;10.27;6.00;;;2.40;99.90;;;;;;5093825;28;20481;-82
2022/03/06 00:56:39;;;;;;;7.22;5.07;;;2.40;99.90;;;;;;5093351;28;20100;-82
2022/03/06 00:59:05;;;;;;;7.97;5.60;;;2.40;99.90;;;;;;5077067;28;20074;-82
2022/03/06 01:01:31;;;;;;;6.57;5.07;;;2.40;99.90;;;;;;5112173;28;20400;-82
2022/03/06 01:03:56;;;;;;;9.60;5.25;;;2.40;99.90;;;;;;5093901;28;20530;-82
2022/03/06 01:06:22;;;;;;;8.68;4.97;;;2.40;99.90;;;;;;5093787;28;20044;-82
2022/03/06 01:08:47;;;;;;;10.85;5.63;;;2.40;99.90;;;;;;5111623;28;20040;-82
2022/03/06 01:11:13;;;;;;;9.30;5.20;;;2.40;99.90;;;;;;5093349;28;20131;-82
2022/03/06 01:13:38;;;;;;;9.10;5.35;;;2.50;99.90;;;;;;5093557;28;20130;-82
2022/03/06 01:16:04;;;;;;;10.90;5.07;;;2.40;99.90;;;;;;5076750;28;20126;-82
2022/03/06 01:18:30;;;;;;;8.30;4.90;;;2.40;99.90;;;;;;5111865;28;20047;-82
2022/03/06 01:20:55;;;;;;;10.43;5.05;;;2.50;99.90;;;;;;5093257;28;20474;-82
2022/03/06 01:23:21;;;;;;;8.05;4.60;;;2.50;99.90;;;;;;5093028;28;20103;-82
2022/03/06 01:25:47;;;;;;;7.05;4.65;;;2.50;99.90;;;;;;5076626;28;20092;-82
2022/03/06 01:28:12;;;;;;;9.73;5.53;;;2.40;99.90;;;;;;5093371;28;20059;-82
2022/03/06 01:30:38;;;;;;;8.10;3.95;;;2.50;99.90;;;;;;5111175;28;20055;-82
2022/03/06 01:33:04;;;;;;;6.15;3.75;;;2.50;99.90;;;;;;5075595;28;20039;-82
2022/03/06 01:35:30;;;;;;;8.60;3.55;;;2.50;99.90;;;;;;5092763;28;20052;-82
2022/03/06 01:37:55;;;;;;;6.35;3.97;;;2.50;99.90;;;;;;5076172;28;20046;-82
2022/03/06 01:40:21;;;;;;;8.38;3.60;;;2.50;99.90;;;;;;5076334;28;20054;-82
2022/03/06 01:42:49;;;;;;;7.57;3.50;;;2.50;99.90;;;;;;5075643;28;20056;-82
2022/03/06 01:45:19;;;;;;;7.25;4.18;;;2.50;99.90;;;;;;5092917;28;20164;-82
2022/03/06 01:47:47;;;;;;;6.43;3.65;;;2.50;99.90;;;;;;5092791;28;20490;-82
2022/03/06 01:50:14;;;;;;;7.68;3.60;;;2.60;99.90;;;;;;5092793;28;20126;-83
2022/03/06 01:52:41;;;;;;;6.45;3.63;;;2.50;99.90;;;;;;5075478;28;20589;-82
2022/03/06 01:55:08;;;;;;;7.63;3.63;;;2.60;99.90;;;;;;5092667;28;20071;-82
2022/03/06 01:57:34;;;;;;;6.80;3.20;;;2.60;99.90;;;;;;5092630;28;20171;-82
2022/03/06 02:00:01;;;;;;;8.65;3.80;;;2.60;99.90;;;;;;5092638;28;20048;-82
2022/03/06 02:02:27;;;;;;;6.35;3.53;;;2.60;99.90;;;;;;5092472;28;20765;-82
2022/03/06 02:04:52;;;;;;;9.82;3.42;;;2.60;99.90;;;;;;5092532;28;20044;-82
2022/03/06 02:07:18;;;;;;;6.82;3.22;;;2.60;99.90;;;;;;5092767;28;20078;-83
2022/03/06 02:09:44;;;;;;;9.00;3.60;;;2.70;99.90;;;;;;5092041;28;20410;-82
2022/03/06 02:12:22;;;;;;;8.43;4.32;;;2.60;99.90;;;;;;5075477;28;20039;-82
2022/03/06 02:14:49;;;;;;;9.70;4.10;;;2.60;99.90;;;;;;5092612;28;20104;-82
2022/03/06 02:17:15;;;;;;;7.70;4.03;;;2.70;99.90;;;;;;5092353;28;20109;-82
2022/03/06 02:19:57;;;;;;;7.57;3.88;;;2.70;99.90;;;;;;5092379;28;20065;-82
2022/03/06 02:22:29;;;;;;;8.18;4.47;;;2.70;99.90;;;;;;5091784;28;20126;-82
2022/03/06 02:24:55;;;;;;;11.45;4.57;;;2.70;99.90;;;;;;5088422;28;20086;-82
2022/03/06 02:27:21;;;;;;;8.57;4.00;;;2.70;99.90;;;;;;5088575;28;20071;-82
2022/03/06 02:29:47;;;;;;;8.38;4.13;;;2.70;99.90;;;;;;5088629;28;20127;-82
2022/03/06 02:32:15;;;;;;;6.65;3.60;;;2.70;99.90;;;;;;5071350;28;20052;-83
2022/03/06 02:34:44;;;;;;;6.38;3.22;;;2.70;99.90;;;;;;5089653;28;20047;-82
2022/03/06 02:37:10;;;;;;;8.95;3.63;;;2.70;99.90;;;;;;5088761;28;20109;-81
2022/03/06 02:39:35;;;;;;;9.70;3.47;;;2.70;99.90;;;;;;5088224;28;20747;-82
2022/03/06 02:42:02;;;;;;;9.07;3.38;;;2.70;99.90;;;;;;5088172;28;20763;-82
2022/03/06 02:44:28;;;;;;;8.30;3.80;;;2.70;99.90;;;;;;5088485;28;20100;-82
2022/03/06 02:46:55;;;;;;;7.32;3.28;;;2.70;99.90;;;;;;5071655;28;20044;-82
2022/03/06 02:49:21;;;;;;;6.53;3.33;;;2.70;99.90;;;;;;5088371;28;20042;-82
2022/03/06 02:51:47;;;;;;;7.10;3.50;;;2.70;99.90;;;;;;5088193;28;20131;-82
2022/03/06 02:54:17;;;;;;;8.85;4.07;;;2.70;99.90;;;;;;5088458;28;20379;-82
2022/03/06 02:56:45;;;;;;;8.27;3.67;;;2.60;99.90;;;;;;5070876;28;20048;-82
2022/03/06 02:59:11;;;;;;;5.47;3.50;;;2.60;99.90;;;;;;5088449;28;20453;-81
2022/03/06 03:01:39;;;;;;;6.72;3.38;;;2.60;99.90;;;;;;5088183;28;20036;-82
2022/03/06 03:04:05;;;;;;;11.55;4.28;;;2.60;99.90;;;;;;5071294;28;20129;-82
2022/03/06 03:06:31;;;;;;;7.47;4.03;;;2.50;99.90;;;;;;5088213;28;20098;-82
2022/03/06 03:08:57;;;;;;;7.35;3.45;;;2.50;99.90;;;;;;5088273;28;20075;-82
2022/03/06 03:11:23;;;;;;;6.20;3.50;;;2.50;99.90;;;;;;5088284;28;20052;-82
2022/03/06 03:13:49;;;;;;;7.57;4.25;;;2.40;99.90;;;;;;5073102;28;20032;-82
2022/03/06 03:16:14;;;;;;;9.10;4.13;;;2.40;99.90;;;;;;5075137;28;20065;-82
2022/03/06 03:18:40;;;;;;;7.18;3.72;;;2.40;99.90;;;;;;5092169;28;20044;-82
2022/03/06 03:21:05;;;;;;;7.75;4.20;;;2.40;99.90;;;;;;5092256;28;20044;-82
2022/03/06 03:23:31;;;;;;;6.90;4.35;;;2.40;99.90;;;;;;5095416;28;20040;-82
2022/03/06 03:25:57;;;;;;;9.07;3.80;;;2.40;99.90;;;;;;5078330;28;20040;-82
2022/03/06 03:28:22;;;;;;;7.35;3.65;;;2.40;99.90;;;;;;5095162;28;20047;-82
2022/03/06 03:30:48;;;;;;;7.68;4.32;;;2.40;99.90;;;;;;5095383;28;20047;-82
2022/03/06 03:33:14;;;;;;;7.25;4.15;;;2.30;99.90;;;;;;5095182;28;20158;-82
2022/03/06 03:35:39;;;;;;;7.60;3.72;;;2.30;99.90;;;;;;5095618;28;20070;-82
2022/03/06 03:38:05;;;;;;;7.10;3.70;;;2.30;99.90;;;;;;5095529;28;20032;-82
2022/03/06 03:40:31;;;;;;;8.38;3.65;;;2.30;99.90;;;;;;5095076;28;20051;-82
2022/03/06 03:42:56;;;;;;;6.97;3.83;;;2.30;99.90;;;;;;5094884;28;20058;-82
2022/03/06 03:45:22;;;;;;;10.60;3.35;;;2.30;99.90;;;;;;5095326;28;20386;-82
2022/03/06 03:47:48;;;;;;;6.80;3.88;;;2.30;99.90;;;;;;5077951;28;20130;-82
2022/03/06 03:50:13;;;;;;;7.03;3.58;;;2.20;99.90;;;;;;5077983;28;20131;-82
2022/03/06 03:52:39;;;;;;;8.80;3.50;;;2.20;99.90;;;;;;5095725;27;20520;-83
2022/03/06 03:55:05;;;;;;;7.18;3.63;;;2.20;99.90;;;;;;5086977;28;20051;-82
2022/03/06 03:57:31;;;;;;;7.88;3.42;;;2.20;99.90;;;;;;5094456;28;20039;-83
2022/03/06 03:59:57;;;;;;;4.93;3.17;;;2.10;99.90;;;;;;5094667;28;20139;-82
2022/03/06 04:02:23;;;;;;;6.85;3.47;;;2.10;99.90;;;;;;5094272;28;20039;-81
2022/03/06 04:04:49;;;;;;;6.47;4.00;;;2.10;99.90;;;;;;5077822;28;20469;-82
2022/03/06 04:07:15;;;;;;;8.90;4.18;;;2.10;99.90;;;;;;5094293;28;20043;-82
2022/03/06 04:09:41;;;;;;;7.20;3.80;;;2.10;99.90;;;;;;5094338;28;20398;-82
2022/03/06 04:12:08;;;;;;;8.85;3.88;;;2.00;99.90;;;;;;5094409;28;20043;-82
2022/03/06 04:14:34;;;;;;;6.53;3.10;;;2.00;99.90;;;;;;5094492;28;20090;-82
2022/03/06 04:17:00;;;;;;;6.68;3.90;;;2.00;99.90;;;;;;5094300;28;20080;-82
2022/03/06 04:19:25;;;;;;;7.07;3.50;;;2.00;99.90;;;;;;5094295;28;20097;-82
2022/03/06 04:21:51;;;;;;;10.20;4.30;;;1.90;99.90;;;;;;5077400;28;20047;-82
2022/03/06 04:24:16;;;;;;;6.43;3.65;;;1.90;99.90;;;;;;5093761;28;20044;-82
2022/03/06 04:26:42;;;;;;;6.03;3.40;;;1.90;99.90;;;;;;5094015;28;20043;-82
2022/03/06 04:29:08;;;;;;;9.02;3.88;;;1.80;99.90;;;;;;5093807;28;20054;-82
2022/03/06 04:31:33;;;;;;;8.88;3.70;;;1.80;99.90;;;;;;5077060;28;20071;-82
2022/03/06 04:33:59;;;;;;;8.05;3.42;;;1.80;99.90;;;;;;5093541;28;20039;-82
2022/03/06 04:36:26;;;;;;;6.07;3.40;;;1.80;99.90;;;;;;5094062;28;20126;-82
2022/03/06 04:38:51;;;;;;;5.43;3.25;;;1.80;99.90;;;;;;5094019;28;20138;-82
2022/03/06 04:41:17;;;;;;;8.10;3.80;;;1.70;99.90;;;;;;5093668;28;20039;-82
2022/03/06 04:43:43;;;;;;;5.57;3.10;;;1.70;99.90;;;;;;5093324;28;20044;-82
2022/03/06 04:46:09;;;;;;;7.82;3.33;;;1.70;99.90;;;;;;5093799;28;20093;-82
2022/03/06 04:48:34;;;;;;;5.93;3.65;;;1.60;99.90;;;;;;5093672;28;20085;-82
2022/03/06 04:51:00;;;;;;;6.60;3.40;;;1.60;99.90;;;;;;5077166;28;20036;-82
2022/03/06 04:53:26;;;;;;;5.88;3.30;;;1.60;99.90;;;;;;5093387;28;20405;-82
2022/03/06 04:55:52;;;;;;;5.47;2.70;;;1.60;99.90;;;;;;5093867;28;20427;-82
2022/03/06 04:58:18;;;;;;;5.93;3.05;;;1.60;99.90;;;;;;5093094;28;20039;-82
2022/03/06 05:00:43;;;;;;;;;;;1.60;99.90;;;;;;5094056;28;20039;-82
2022/03/06 05:03:09;;;;;;;;;;;1.50;99.90;;;;;;5093762;28;19920;-82
2022/03/06 05:05:34;;;;;;;5.70;3.08;;;1.50;99.90;;;;;;5092861;28;19920;-82
2022/03/06 05:08:00;;;;;;;5.93;3.08;;;1.50;99.90;;;;;;5093314;28;20043;-82
2022/03/06 05:10:26;;;;;;;6.75;3.05;;;1.50;99.90;;;;;;5093330;28;20430;-82
2022/03/06 05:12:51;;;;;;;7.15;2.85;;;1.50;99.90;;;;;;5093215;28;20138;-82
2022/03/06 05:15:17;;;;;;;6.78;2.92;;;1.40;99.90;;;;;;5092917;28;20044;-82
2022/03/06 05:17:43;;;;;;;5.25;2.70;;;1.50;99.90;;;;;;5075869;28;20044;-82
2022/03/06 05:20:10;;;;;;;7.30;3.17;;;1.40;99.90;;;;;;5093020;28;20146;-81
2022/03/06 05:22:37;;;;;;;5.65;3.00;;;1.40;99.90;;;;;;5092942;28;20054;-83
2022/03/06 05:25:04;;;;;;;7.50;3.35;;;1.40;99.90;;;;;;5092693;28;20222;-82
2022/03/06 05:27:29;;;;;;;6.55;3.35;;;1.40;99.90;;;;;;5092414;28;20040;-81
2022/03/06 05:29:55;;;;;;;7.30;3.20;;;1.30;99.90;;;;;;5092580;28;20387;-82
2022/03/06 05:32:21;;;;;;;8.48;4.25;;;1.30;99.90;;;;;;5075865;28;20043;-82
2022/03/06 05:34:47;;;;;;;6.82;3.17;;;1.30;99.90;;;;;;5092955;28;20073;-82
2022/03/06 05:37:12;;;;;;;6.22;3.08;;;1.30;99.90;;;;;;5092374;28;20044;-82
2022/03/06 05:39:38;;;;;;;4.63;2.50;;;1.20;99.90;;;;;;5092226;28;20118;-82
2022/03/06 05:42:04;;;;;;;;;;;1.30;99.90;;;;;;5093064;28;20519;-82
2022/03/06 05:44:29;;;;;;;;;;;1.30;99.90;;;;;;5093132;28;20335;-82
2022/03/06 05:46:55;;;;;;;;;;;1.30;99.90;;;;;;5092419;28;19989;-82
2022/03/06 05:49:20;;;;;;;;;;;1.30;99.90;;;;;;5092676;28;19920;-81
2022/03/06 05:51:46;;;;;;;5.15;2.70;;;1.30;99.90;;;;;;5075324;28;20313;-82
2022/03/06 05:54:12;;;;;;;4.15;2.60;;;1.30;99.90;;;;;;5092061;28;20047;-83
2022/03/06 05:56:39;;;;;;;4.88;2.40;;;1.30;99.90;;;;;;5091581;28;20043;-82
2022/03/06 05:59:05;;;;;;;5.10;2.30;;;1.30;99.90;;;;;;5091588;28;20062;-82
2022/03/06 06:01:31;;;;;;;5.40;2.50;;;1.30;99.90;;;;;;5087219;28;20402;-82
2022/03/06 06:03:58;;;;;;;4.93;2.50;;;1.20;99.90;;;;;;5069900;28;20406;-82
2022/03/06 06:06:26;;;;;;;4.80;2.25;;;1.20;99.90;;;;;;5070189;28;20410;-82
2022/03/06 06:08:52;;;;;;;3.90;2.00;;;1.20;99.90;;;;;;5071530;28;20043;-82
2022/03/06 06:11:18;;;;;;;4.40;2.03;;;1.20;99.90;;;;;;5055047;28;20059;-82
2022/03/06 06:13:44;;;;;;;3.70;1.80;;;1.20;99.90;;;;;;5054737;28;20032;-82
2022/03/06 06:16:10;;;;;;;5.90;1.95;;;1.30;99.90;;;;;;5071383;28;20409;-82
2022/03/06 06:18:36;;;;;;;2.75;1.80;;;1.20;99.90;;;;;;5071771;28;20040;-82
2022/03/06 06:21:01;;;;;;;4.03;1.85;;;1.20;99.90;;;;;;5071283;28;20407;-82
2022/03/06 06:23:27;;;;;;;3.15;1.80;;;1.20;99.90;;;;;;5070902;28;20052;-82
2022/03/06 06:25:53;;;;;;;3.92;1.92;;;1.20;99.90;;;;;;5054795;28;20040;-82
2022/03/06 06:28:18;;;;;;;3.30;1.77;;;1.30;99.90;;;;;;5071168;28;20396;-83
2022/03/06 06:30:44;;;;;;;5.18;2.03;;;1.30;99.90;;;;;;5071168;28;20094;-82
2022/03/06 06:33:10;;;;;;;3.38;1.75;;;1.30;99.90;;;;;;5054709;28;20460;-82
2022/03/06 06:35:35;;;;;;;3.40;1.75;;;1.30;99.90;;;;;;5071928;28;20426;-83
2022/03/06 06:38:02;;;;;;;3.92;1.95;;;1.30;99.90;;;;;;5071351;28;20081;-82
2022/03/06 06:40:28;;;;;;;3.55;1.73;;;1.20;99.90;;;;;;5071051;28;20089;-82
2022/03/06 06:42:54;;;;;;;7.03;2.15;;;1.30;99.90;;;;;;5070916;28;20460;-82
2022/03/06 06:45:19;;;;;;;3.70;1.80;;;1.30;99.90;;;;;;5071524;28;20052;-82
2022/03/06 06:47:45;;;;;;;3.35;1.75;;;1.30;99.90;;;;;;5071217;28;20398;-82
2022/03/06 06:50:11;;;;;;;3.72;1.60;;;1.40;99.90;;;;;;5054126;28;20044;-82
2022/03/06 06:52:37;;;;;;;2.65;1.50;;;1.50;99.90;;;;;;5071620;28;20048;-82
2022/03/06 06:55:04;;;;;;;3.33;1.77;;;1.60;99.90;;;;;;5071168;28;20479;-83
2022/03/06 06:57:29;;;;;;;3.47;1.80;;;1.70;99.90;;;;;;5071161;28;20048;-83
2022/03/06 06:59:56;;;;;;;3.85;1.70;;;1.80;99.90;;;;;;5070941;28;20048;-82
2022/03/06 07:02:21;;;;;;;4.50;1.70;;;1.90;99.90;;;;;;5064788;28;20083;-82
2022/03/06 07:04:47;;;;;;;4.00;1.63;;;1.90;99.90;;;;;;5074673;28;20075;-83
2022/03/06 07:07:12;;;;;;;2.70;1.50;;;2.00;99.90;;;;;;5090908;28;20493;-82
2022/03/06 07:09:38;;;;;;;10.68;2.38;;;2.10;99.90;;;;;;5091408;28;20040;-83
2022/03/06 07:12:05;;;;;;;4.32;1.92;;;2.10;99.90;;;;;;5091242;28;20048;-82
2022/03/06 07:14:30;;;;;;;3.40;1.60;;;2.10;99.90;;;;;;5074056;28;20035;-82
2022/03/06 07:16:56;;;;;;;3.78;1.70;;;2.10;99.90;;;;;;5100734;28;20450;-82
2022/03/06 07:19:21;;;;;;;2.33;1.50;;;2.20;99.90;;;;;;5110152;28;20047;-82
2022/03/06 07:21:47;;;;;;;5.07;1.95;;;2.20;99.90;;;;;;5101683;28;20092;-82
2022/03/06 07:24:13;;;;;;;4.70;1.95;;;2.20;99.90;;;;;;5110127;28;20388;-83
2022/03/06 07:26:38;;;;;;;3.63;1.90;;;2.20;99.90;;;;;;5101680;28;20057;-83
2022/03/06 07:29:04;;;;;;;2.85;1.73;;;2.10;99.90;;;;;;5105701;28;20044;-83
2022/03/06 07:31:30;;;;;;;3.95;2.00;;;2.10;99.90;;;;;;5093059;28;20079;-83
2022/03/06 07:33:56;;;;;;;7.22;2.63;;;2.10;99.90;;;;;;5107136;28;20095;-83
2022/03/06 07:36:21;;;;;;;2.80;1.45;;;2.10;99.90;;;;;;5105651;28;20043;-83
2022/03/06 07:38:47;;;;;;;6.38;1.60;;;2.10;99.90;;;;;;5109813;28;20556;-83
2022/03/06 07:41:13;;;;;;;3.13;1.60;;;2.10;99.90;;;;;;5110320;28;20028;-83
2022/03/06 07:43:39;;;;;;;4.65;1.88;;;2.10;99.90;;;;;;5108782;28;20067;-82
2022/03/06 07:46:05;;;;;;;5.18;1.63;;;2.10;99.90;;;;;;5108124;28;20833;-83
2022/03/06 07:48:30;;;;;;;4.82;1.80;;;2.10;99.90;;;;;;5101500;28;20400;-83
2022/03/06 07:50:56;;;;;;;4.57;1.77;;;2.20;99.90;;;;;;5109838;28;20039;-82
2022/03/06 07:53:22;;;;;;;3.38;1.50;;;2.20;99.90;;;;;;5105769;28;20040;-83
2022/03/06 07:55:47;;;;;;;4.07;1.90;;;2.20;99.90;;;;;;5088712;28;20039;-82
2022/03/06 07:58:13;;;;;;;4.30;2.00;;;2.20;99.90;;;;;;5069602;28;20046;-83
2022/03/06 08:00:39;;;;;;;4.47;1.70;;;2.20;99.90;;;;;;5112268;27;20477;-83
2022/03/06 08:03:04;;;;;;;3.55;1.50;;;2.30;99.90;;;;;;5110667;27;20039;-82
2022/03/06 08:05:31;;;;;;;5.10;1.65;;;2.30;99.90;;;;;;5113733;27;20120;-82
2022/03/06 08:07:57;;;;;;;4.00;1.77;;;2.30;99.90;;;;;;5096548;27;20096;-83
2022/03/06 08:10:23;;;;;;;3.03;1.40;;;2.30;99.90;;;;;;5132419;27;20493;-84
2022/03/06 08:12:49;;;;;;;4.82;1.70;;;2.40;99.90;;;;;;5123637;27;20031;-83
2022/03/06 08:15:15;;;;;;;5.72;2.08;;;2.40;99.90;;;;;;5113074;27;20039;-83
2022/03/06 08:17:41;;;;;;;4.22;1.45;;;2.40;99.90;;;;;;5096215;27;20043;-83
2022/03/06 08:20:07;;;;;;;3.15;1.52;;;2.50;99.90;;;;;;5113361;27;20042;-83
2022/03/06 08:22:33;;;;;;;4.95;1.40;;;2.50;99.90;;;;;;5094364;27;20054;-83
2022/03/06 08:25:00;;;;;;;5.30;1.83;;;2.50;99.90;;;;;;5112024;27;20042;-83
2022/03/06 08:27:26;;;;;;;4.20;2.00;;;2.60;99.90;;;;;;5113372;27;20829;-81
2022/03/06 08:29:52;;;;;;;3.70;1.85;;;2.60;99.90;;;;;;5108125;27;20136;-82
2022/03/06 08:32:18;;;;;;;4.53;1.67;;;2.60;99.90;;;;;;5109350;27;20409;-82
2022/03/06 08:34:44;;;;;;;3.45;1.38;;;2.70;99.90;;;;;;5091852;27;20035;-82
2022/03/06 08:37:10;;;;;;;4.68;1.98;;;2.70;99.90;;;;;;5110994;27;20558;-82
2022/03/06 08:39:36;;;;;;;4.72;1.65;;;2.70;99.90;;;;;;5110939;27;20047;-82
2022/03/06 08:42:02;;;;;;;4.88;1.85;;;2.70;99.90;;;;;;5108800;27;20096;-82
2022/03/06 08:44:28;;;;;;;4.13;2.22;;;2.80;99.90;;;;;;5091519;27;20088;-82
2022/03/06 08:46:53;;;;;;;3.28;1.50;;;2.80;99.90;;;;;;5108142;27;20031;-82
2022/03/06 08:49:19;;;;;;;4.50;1.70;;;2.90;99.90;;;;;;5110904;28;20044;-81
2022/03/06 08:51:45;;;;;;;5.03;2.70;;;2.90;99.90;;;;;;5111493;28;20050;-80
2022/03/06 08:54:10;;;;;;;4.50;1.70;;;2.90;99.90;;;;;;5111451;28;20418;-80
2022/03/06 08:56:36;;;;;;;3.65;1.73;;;3.00;99.90;;;;;;5093769;27;20040;-82
2022/03/06 08:59:03;;;;;;;3.55;1.40;;;3.00;99.90;;;;;;5100536;28;20050;-82
2022/03/06 09:01:28;;;;;;;2.38;1.40;;;3.00;99.90;;;;;;5093344;28;20098;-83
2022/03/06 09:03:54;;;;;;;;;;;3.10;99.90;;;;;;5093738;28;20079;-82
2022/03/06 09:06:19;;;;;;;3.92;1.65;;;3.20;99.90;;;;;;5093183;28;20305;-82
2022/03/06 09:08:45;;;;;;;6.55;1.70;;;3.20;99.90;;;;;;5093279;28;20516;-82
2022/03/06 09:11:11;;;;;;;5.88;1.83;;;3.30;99.90;;;;;;5091697;28;20557;-83
2022/03/06 09:13:37;;;;;;;5.05;2.10;;;3.30;99.90;;;;;;5096162;27;20410;-82
2022/03/06 09:16:04;;;;;;;3.50;1.50;;;3.40;99.90;;;;;;5094719;28;20405;-82
2022/03/06 09:18:29;;;;;;;3.38;1.60;;;3.40;99.90;;;;;;5092965;28;20048;-82
2022/03/06 09:20:56;;;;;;;5.35;1.92;;;3.50;99.90;;;;;;5092825;28;20054;-84
2022/03/06 09:23:21;;;;;;;5.15;1.98;;;3.50;99.90;;;;;;5074745;28;20515;-84
2022/03/06 09:25:47;;;;;;;3.75;1.73;;;3.90;99.90;;;;;;5091890;28;20503;-82
2022/03/06 09:28:13;;;;;;;4.13;1.80;;;4.80;99.90;;;;;;5093276;27;20525;-82
2022/03/06 09:30:39;;;;;;;3.95;1.80;;;5.70;98.60;;;;;;5111242;27;20414;-82
2022/03/06 09:33:05;;;;;;;3.80;1.90;;;6.50;97.70;;;;;;5111833;27;20427;-82
2022/03/06 09:35:30;;;;;;;4.10;1.80;;;7.40;96.00;;;;;;5110693;27;20440;-82
2022/03/06 09:37:56;;;;;;;4.13;1.60;;;8.00;93.90;;;;;;5094627;27;20399;-83
2022/03/06 09:40:22;;;;;;;3.95;1.60;;;8.50;92.60;;;;;;5111407;27;20399;-83
2022/03/06 09:42:48;;;;;;;4.25;1.80;;;8.90;90.00;;;;;;5094468;27;20422;-84
2022/03/06 09:45:15;;;;;;;4.32;1.73;;;9.40;88.10;;;;;;5108501;27;20531;-84
2022/03/06 09:47:42;;;;;;;2.95;1.48;;;9.70;81.50;;;;;;5105400;28;20481;-84
2022/03/06 09:50:10;;;;;;;3.33;1.73;;;10.10;82.50;;;;;;5091154;28;21013;-82
2022/03/06 09:52:35;;;;;;;4.93;2.47;;;10.40;79.80;;;;;;5091528;28;20464;-84
2022/03/06 09:55:02;;;;;;;3.97;2.38;;;10.80;77.10;;;;;;5108456;28;20933;-84
2022/03/06 09:57:28;;;;;;;5.50;2.38;;;11.10;74.70;;;;;;5108354;28;20400;-84
2022/03/06 09:59:54;;;;;;;3.42;1.50;;;11.20;73.20;;;;;;5092716;27;20415;-84
2022/03/06 10:02:19;;;;;;;3.53;1.23;;;11.40;69.50;;;;;;5100764;28;20489;-84
2022/03/06 10:04:48;;;;;;;4.07;1.70;;;11.50;69.80;;;;;;5090714;28;20396;-83
2022/03/06 10:07:16;;;;;;;3.67;1.50;;;11.40;69.70;;;;;;5090659;28;20462;-83
2022/03/06 10:09:54;;;;;;;5.30;1.77;;;11.20;66.20;;;;;;5089853;27;20431;-82
2022/03/06 10:12:27;;;;;;;4.15;1.70;;;10.70;67.30;;;;;;5089675;28;20424;-83
2022/03/06 10:14:58;;;;;;;2.70;1.40;;;10.00;68.20;;;;;;5073601;28;20952;-83
2022/03/06 10:17:26;;;;;;;4.05;1.60;;;9.90;70.40;;;;;;5090931;28;20774;-83
2022/03/06 10:20:05;;;;;;;3.60;1.60;;;9.90;70.80;;;;;;5090391;28;20432;-82
2022/03/06 10:22:32;;;;;;;4.95;1.80;;;10.10;71.50;;;;;;5073059;28;21141;-83
2022/03/06 10:25:05;;;;;;;4.13;1.75;;;10.10;70.20;;;;;;5071990;28;20404;-83
2022/03/06 10:27:53;;;;;;;3.50;1.58;;;9.90;70.70;;;;;;5083405;27;20461;-83
2022/03/06 10:30:42;;;;;;;3.97;1.80;;;10.10;72.60;;;;;;5105635;28;20491;-83
2022/03/06 10:33:16;;;;;;;3.40;1.70;;;10.60;69.70;;;;;;5106707;28;20800;-82
2022/03/06 10:35:42;;;;;;;;;;;11.30;69.40;;;;;;5090911;28;20563;-82
2022/03/06 10:38:17;;;;;;;;;;;11.90;67.10;;;;;;5093066;27;19936;-82
2022/03/06 10:40:43;;;;;;;;;;;12.30;65.30;;;;;;5094339;27;19919;-83
2022/03/06 10:43:16;;;;;;;;;;;12.60;65.10;;;;;;5111073;27;19920;-83
2022/03/06 10:45:41;;;;;;;;;;;13.00;63.60;;;;;;5111248;27;19957;-83
2022/03/06 10:48:08;;;;;;;;;;;13.30;63.50;;;;;;5094120;27;19962;-82
2022/03/06 10:50:34;;;;;;;;;;;13.60;62.60;;;;;;5109506;27;19920;-83
2022/03/06 10:52:59;;;;;;;;;;;14.00;61.00;;;;;;5125914;27;20524;-84
2022/03/06 10:55:32;;;;;;;;;;;14.30;61.30;;;;;;5092096;28;20019;-84
2022/03/06 10:57:58;;;;;;;;;;;14.50;58.70;;;;;;5109309;28;19980;-84
2022/03/06 11:00:23;;;;;;;;;;;14.50;59.20;;;;;;5092266;28;19928;-83
2022/03/06 11:02:49;;;;;;;;;;;14.70;57.90;;;;;;5091667;28;20289;-84
2022/03/06 11:05:15;;;;;;;;;;;14.70;58.40;;;;;;5091414;28;19927;-84
2022/03/06 11:07:40;;;;;;;;;;;14.60;58.10;;;;;;5093254;28;19930;-83
2022/03/06 11:10:06;;;;;;;;;;;14.70;58.20;;;;;;5111678;28;19919;-81
2022/03/06 11:12:33;;;;;;;;;;;14.90;57.70;;;;;;5096195;28;20002;-81
2022/03/06 11:14:59;;;;;;;;;;;14.90;56.40;;;;;;5093281;28;20018;-82
2022/03/06 11:17:25;;;;;;;;;;;14.60;55.90;;;;;;5125569;28;19919;-82
2022/03/06 11:19:51;;;;;;;;;;;14.80;57.70;;;;;;5092130;28;19942;-82
2022/03/06 11:22:21;;;;;;;;;;;15.30;56.40;;;;;;5091351;28;20373;-83
2022/03/06 11:24:49;;;;;;;;;;;15.50;54.00;;;;;;5108063;28;19919;-82
2022/03/06 11:27:26;;;;;;;;;;;15.30;54.90;;;;;;5091284;28;19924;-82
2022/03/06 11:30:04;;;;;;;;;;;14.80;54.20;;;;;;5090753;28;19923;-82
2022/03/06 11:32:31;;;;;;;;;;;14.00;54.50;;;;;;5090437;28;19976;-82
2022/03/06 11:35:12;;;;;;;;;;;13.20;56.20;;;;;;5092241;28;20030;-81
2022/03/06 11:37:57;;;;;;;;;;;12.50;57.70;;;;;;5112094;28;19942;-82
2022/03/06 11:40:34;;;;;;;;;;;11.90;59.00;;;;;;5077547;28;19926;-82
2022/03/06 11:43:00;;;;;;;;;;;11.60;60.00;;;;;;5094467;28;20400;-82
2022/03/06 11:45:44;;;;;;;;;;;11.30;60.60;;;;;;5094515;28;19924;-82
2022/03/06 11:48:30;;;;;;;;;;;11.10;62.40;;;;;;5094806;28;19924;-82
2022/03/06 11:51:14;;;;;;;;;;;10.90;62.30;;;;;;5046447;28;20334;-82
2022/03/06 11:53:50;;;;;;;;;;;10.60;62.90;;;;;;5078050;28;19935;-82
2022/03/06 11:56:34;;;;;;;;;;;10.20;63.20;;;;;;5095275;28;20330;-82
2022/03/06 11:59:16;;;;;;;4.18;2.08;;;9.80;64.80;;;;;;5077677;28;20143;-82
2022/03/06 12:01:43;;;;;;;5.05;1.60;;;9.50;65.70;;;;;;5089473;28;20082;-81
2022/03/06 12:04:18;;;;;;;3.78;2.05;;;9.20;67.10;;;;;;5092046;28;20097;-81
2022/03/06 12:06:56;;;;;;;4.22;1.95;;;9.20;67.00;;;;;;5074200;28;20486;-82
2022/03/06 12:09:27;;;;;;;4.45;2.00;;;9.40;67.90;;;;;;5074087;28;20056;-82
2022/03/06 12:11:57;;;;;;;4.78;1.85;;;9.60;67.90;;;;;;5057203;28;20040;-82
2022/03/06 12:14:24;;;;;;;6.18;2.40;;;9.80;67.90;;;;;;5074554;28;20043;-82
2022/03/06 12:17:06;;;;;;;6.05;2.05;;;10.10;66.90;;;;;;5074071;28;20070;-81
2022/03/06 12:19:33;;;;;;;;;;;10.30;66.90;;;;;;5058031;28;20040;-82
2022/03/06 12:22:11;;;;;;;;;;;10.60;66.80;;;;;;5074260;28;20390;-82
2022/03/06 12:24:37;;;;;;;;;;;10.70;66.10;;;;;;5074191;28;19924;-82
2022/03/06 12:27:20;;;;;;;7.50;2.15;;;10.90;66.90;;;;;;5073553;28;19920;-82
2022/03/06 12:29:46;;;;;;;4.68;1.83;;;11.10;66.10;;;;;;5073049;28;20097;-82
2022/03/06 12:32:27;;;;;;;4.63;1.80;;;11.00;66.50;;;;;;5057092;28;20052;-82
2022/03/06 12:35:00;;;;;;;5.57;1.77;;;11.20;66.60;;;;;;5073570;28;20533;-82
2022/03/06 12:37:35;;;;;;;4.43;1.92;;;11.60;65.60;;;;;;5073774;28;20060;-82
2022/03/06 12:40:06;;;;;;;4.80;1.85;;;11.90;66.10;;;;;;5057225;28;20039;-82
2022/03/06 12:42:34;;;;;;;4.50;2.15;;;12.10;65.50;;;;;;5073355;28;20044;-82
2022/03/06 12:45:08;;;;;;;3.60;1.60;;;12.30;66.00;;;;;;5073354;28;20040;-82
2022/03/06 12:47:36;;;;;;;4.13;2.10;;;12.40;64.30;;;;;;5072199;28;20243;-82
2022/03/06 12:50:02;;;;;;;;;;;12.40;63.30;;;;;;5074135;28;20097;-82
2022/03/06 12:52:28;;;;;;;;;;;12.50;64.90;;;;;;5074258;28;20329;-82
2022/03/06 12:54:55;;;;;;;;;;;12.80;63.70;;;;;;5073622;28;19920;-82
2022/03/06 12:57:21;;;;;;;;;;;12.90;63.90;;;;;;5073428;28;19984;-82
2022/03/06 12:59:48;;;;;;;;;;;12.70;64.40;;;;;;5073658;28;19931;-82
2022/03/06 13:02:18;;;;;;;;;;;12.10;64.20;;;;;;5082173;28;20449;-82
2022/03/06 13:04:50;;;;;;;;;;;12.00;64.90;;;;;;5093793;28;19927;-82
2022/03/06 13:07:37;;;;;;;5.28;2.00;;;12.00;65.90;;;;;;5092779;28;19923;-82